Time;durP1;ratioP1;P1;durP2;ratioP2;P2;SDS_P1;SDS_P2;PMS_P1;PMS_P2;Temp;Humidity;BMP_temperature;BMP_pressure;BME280_temperature;BME280_humidity;BME280_pressure;Samples;Min_cycle;Max_cycle;Signal;HPM_P1;HPM_P2
2022/08/09 00:00:52;;;;;;;35.83;34.00;;;;;;;;;;5042209;28;20103;-59
2022/08/09 00:03:17;;;;;;;33.17;31.48;;;;;;;;;;5038733;28;20040;-59
2022/08/09 00:05:43;;;;;;;35.90;34.05;;;;;;;;;;5045565;28;20045;-59
2022/08/09 00:08:09;;;;;;;33.95;32.17;;;;;;;;;;5042256;28;20024;-59
2022/08/09 00:10:35;;;;;;;32.85;31.15;;;;;;;;;;5042642;28;20046;-59
2022/08/09 00:13:00;;;;;;;39.08;37.08;;;;;;;;;;5043862;28;20024;-60
2022/08/09 00:15:26;;;;;;;39.25;37.15;;;;;;;;;;5042653;28;20033;-60
2022/08/09 00:17:51;;;;;;;47.38;44.97;;;;;;;;;;5039977;28;20118;-60
2022/08/09 00:20:16;;;;;;;33.05;31.33;;;;;;;;;;5045497;28;20048;-60
2022/08/09 00:22:42;;;;;;;37.70;35.75;;;;;;;;;;5042159;28;20040;-60
2022/08/09 00:25:08;;;;;;;35.00;33.20;;;;;;;;;;5043271;28;20033;-59
2022/08/09 00:27:34;;;;;;;42.47;40.30;;;;;;;;;;5043535;28;20037;-60
2022/08/09 00:30:00;;;;;;;40.75;38.63;;;;;;;;;;5042355;28;20037;-60
2022/08/09 00:32:25;;;;;;;37.95;35.97;;;;;;;;;;5041653;28;20014;-60
2022/08/09 00:34:51;;;;;;;47.75;45.30;;;;;;;;;;5046420;28;20018;-61
2022/08/09 00:37:16;;;;;;;42.45;40.30;;;;;;;;;;5046936;28;20025;-61
2022/08/09 00:39:42;;;;;;;53.83;51.08;;;;;;;;;;5042155;28;20080;-61
2022/08/09 00:42:07;;;;;;;47.22;44.83;;;;;;;;;;5047264;28;20052;-61
2022/08/09 00:44:32;;;;;;;46.65;44.25;;;;;;;;;;5049652;28;20372;-60
2022/08/09 00:46:58;;;;;;;48.00;45.55;;;;;;;;;;5047012;28;20344;-60
2022/08/09 00:49:23;;;;;;;54.15;51.45;;;;;;;;;;5042666;28;20020;-60
2022/08/09 00:51:48;;;;;;;47.08;44.70;;;;;;;;;;5041771;28;20513;-61
2022/08/09 00:54:15;;;;;;;49.90;47.38;;;;;;;;;;5042451;28;20247;-61
2022/08/09 00:56:40;;;;;;;50.88;48.33;;;;;;;;;;5041100;28;20029;-60
2022/08/09 00:59:06;;;;;;;46.50;44.13;;;;;;;;;;5043730;28;20430;-61
2022/08/09 01:01:36;;;;;;;41.05;38.97;;;;;;;;;;5048196;28;20037;-61
2022/08/09 01:04:07;;;;;;;36.73;34.83;;;;;;;;;;5043758;28;20234;-61
2022/08/09 01:07:03;;;;;;;42.78;40.60;;;;;;;;;;5037113;28;20797;-61
2022/08/09 01:09:38;;;;;;;37.67;35.70;;;;;;;;;;5042853;28;20037;-61
2022/08/09 01:12:21;;;;;;;36.70;34.83;;;;;;;;;;5041049;28;20029;-61
2022/08/09 01:14:53;;;;;;;36.90;35.00;;;;;;;;;;5043892;28;20032;-61
2022/08/09 01:17:29;;;;;;;31.35;29.67;;;;;;;;;;5047687;28;20498;-60
2022/08/09 01:20:06;;;;;;;31.13;29.45;;;;;;;;;;5040707;28;20466;-61
2022/08/09 01:22:53;;;;;;;30.38;28.77;;;;;;;;;;5037622;28;20044;-60
2022/08/09 01:25:43;;;;;;;29.45;27.92;;;;;;;;;;5039144;28;20138;-60
2022/08/09 01:28:09;;;;;;;27.02;25.63;;;;;;;;;;5044202;28;20033;-61
2022/08/09 01:30:36;;;;;;;25.60;24.25;;;;;;;;;;5042867;28;20536;-60
2022/08/09 01:33:04;;;;;;;26.30;24.90;;;;;;;;;;5039553;28;20056;-60
2022/08/09 01:35:48;;;;;;;26.63;25.20;;;;;;;;;;5043174;28;20127;-61
2022/08/09 01:38:19;;;;;;;24.05;22.73;;;;;;;;;;5039174;28;20371;-60
2022/08/09 01:40:53;;;;;;;25.20;23.85;;;;;;;;;;5041246;28;20028;-60
2022/08/09 01:43:20;;;;;;;23.35;22.10;;;;;;;;;;5043066;28;20021;-61
2022/08/09 01:45:47;;;;;;;23.98;22.70;;;;;;;;;;5042347;28;20033;-61
2022/08/09 01:48:15;;;;;;;25.10;23.75;;;;;;;;;;5038708;28;20402;-61
2022/08/09 01:50:43;;;;;;;25.00;23.65;;;;;;;;;;5041661;28;20029;-61
2022/08/09 01:53:10;;;;;;;25.00;23.65;;;;;;;;;;5042722;28;20033;-61
2022/08/09 01:55:36;;;;;;;23.70;22.42;;;;;;;;;;5038612;28;20382;-61
2022/08/09 01:58:04;;;;;;;23.67;22.40;;;;;;;;;;5039763;28;20434;-61
2022/08/09 02:00:30;;;;;;;22.42;21.23;;;;;;;;;;5039289;28;20183;-61
2022/08/09 02:02:56;;;;;;;20.98;19.75;;;;;;;;;;5043240;28;20032;-60
2022/08/09 02:05:22;;;;;;;25.52;24.17;;;;;;;;;;5039236;28;20586;-60
2022/08/09 02:08:01;;;;;;;22.50;21.30;;;;;;;;;;5040657;28;20063;-60
2022/08/09 02:10:34;;;;;;;22.98;21.75;;;;;;;;;;5044243;28;20301;-60
2022/08/09 02:13:02;;;;;;;19.77;18.70;;;;;;;;;;5041226;28;20450;-60
2022/08/09 02:15:29;;;;;;;15.15;14.30;;;;;;;;;;5043934;28;20374;-59
2022/08/09 02:17:55;;;;;;;14.52;13.68;;;;;;;;;;5041757;28;20021;-60
2022/08/09 02:20:22;;;;;;;17.58;16.58;;;;;;;;;;5038023;28;20159;-60
2022/08/09 02:22:51;;;;;;;16.45;15.43;;;;;;;;;;5037693;28;20096;-59
2022/08/09 02:25:23;;;;;;;16.77;15.83;;;;;;;;;;5043364;28;20025;-59
2022/08/09 02:27:53;;;;;;;15.65;14.75;;;;;;;;;;5041544;28;20098;-60
2022/08/09 02:30:19;;;;;;;14.80;13.97;;;;;;;;;;5039650;28;20090;-60
2022/08/09 02:32:47;;;;;;;16.52;15.52;;;;;;;;;;5041395;28;20033;-60
2022/08/09 02:35:18;;;;;;;15.98;15.07;;;;;;;;;;5041487;28;20037;-60
2022/08/09 02:37:46;;;;;;;12.23;11.52;;;;;;;;;;5042494;28;20233;-60
2022/08/09 02:40:15;;;;;;;13.57;12.77;;;;;;;;;;5041029;28;20052;-59
2022/08/09 02:42:43;;;;;;;12.35;11.65;;;;;;;;;;5040447;28;20025;-59
2022/08/09 02:45:22;;;;;;;12.80;12.02;;;;;;;;;;5042760;28;20025;-59
2022/08/09 02:47:48;;;;;;;10.18;9.48;;;;;;;;;;5035120;28;20402;-60
2022/08/09 02:50:21;;;;;;;10.13;9.52;;;;;;;;;;5044152;28;20024;-60
2022/08/09 02:52:50;;;;;;;9.52;8.93;;;;;;;;;;5043344;28;20029;-60
2022/08/09 02:55:17;;;;;;;8.82;8.23;;;;;;;;;;5040590;28;20119;-60
2022/08/09 02:57:44;;;;;;;11.10;10.40;;;;;;;;;;5037484;28;20144;-60
2022/08/09 03:00:11;;;;;;;9.90;9.20;;;;;;;;;;5037546;28;20218;-60
2022/08/09 03:02:39;;;;;;;8.80;8.23;;;;;;;;;;5038924;28;20105;-59
2022/08/09 03:05:07;;;;;;;9.50;8.80;;;;;;;;;;5041460;28;20053;-58
2022/08/09 03:07:34;;;;;;;8.63;8.10;;;;;;;;;;5039319;28;20041;-59
2022/08/09 03:10:02;;;;;;;7.07;6.47;;;;;;;;;;5040787;28;20018;-59
2022/08/09 03:12:28;;;;;;;8.15;6.97;;;;;;;;;;5041269;28;20037;-59
2022/08/09 03:14:56;;;;;;;6.68;6.20;;;;;;;;;;5039147;28;20523;-59
2022/08/09 03:17:22;;;;;;;7.38;6.88;;;;;;;;;;5040310;28;20025;-59
2022/08/09 03:19:48;;;;;;;6.40;5.97;;;;;;;;;;5038379;28;20492;-58
2022/08/09 03:22:14;;;;;;;7.20;6.70;;;;;;;;;;5039699;28;20033;-58
2022/08/09 03:24:40;;;;;;;7.43;6.93;;;;;;;;;;5041586;28;20228;-59
2022/08/09 03:27:08;;;;;;;7.90;7.40;;;;;;;;;;5036719;28;20613;-61
2022/08/09 03:29:35;;;;;;;7.25;6.75;;;;;;;;;;5052687;28;20370;-60
2022/08/09 03:32:03;;;;;;;6.85;6.35;;;;;;;;;;5039698;28;20037;-60
2022/08/09 03:34:28;;;;;;;6.00;5.60;;;;;;;;;;5031295;28;20090;-61
2022/08/09 03:36:55;;;;;;;6.93;6.43;;;;;;;;;;5043230;28;20040;-61
2022/08/09 03:39:23;;;;;;;6.90;6.32;;;;;;;;;;5039938;28;20087;-60
2022/08/09 03:41:49;;;;;;;6.05;5.65;;;;;;;;;;5043483;28;20031;-61
2022/08/09 03:44:15;;;;;;;6.57;6.07;;;;;;;;;;5045285;28;20516;-61
2022/08/09 03:46:40;;;;;;;6.10;5.60;;;;;;;;;;5040377;28;20087;-61
2022/08/09 03:49:07;;;;;;;6.32;5.82;;;;;;;;;;5039124;28;20498;-60
2022/08/09 03:51:34;;;;;;;7.03;6.53;;;;;;;;;;5043603;28;20033;-60
2022/08/09 03:53:59;;;;;;;6.47;6.00;;;;;;;;;;5043081;28;20056;-60
2022/08/09 03:56:25;;;;;;;5.90;5.45;;;;;;;;;;5037126;28;20178;-60
2022/08/09 03:58:50;;;;;;;6.40;5.93;;;;;;;;;;5041642;28;20105;-60
2022/08/09 04:01:16;;;;;;;6.78;6.28;;;;;;;;;;5037627;28;20033;-60
2022/08/09 04:03:41;;;;;;;6.75;6.25;;;;;;;;;;5042895;28;20128;-60
2022/08/09 04:06:07;;;;;;;6.95;6.45;;;;;;;;;;5041044;28;20033;-60
2022/08/09 04:08:32;;;;;;;6.70;6.20;;;;;;;;;;5041539;28;20113;-60
2022/08/09 04:10:58;;;;;;;6.40;6.00;;;;;;;;;;5044571;28;20435;-60
2022/08/09 04:13:23;;;;;;;6.30;5.90;;;;;;;;;;5044568;28;20025;-60
2022/08/09 04:15:48;;;;;;;5.82;5.43;;;;;;;;;;5043818;28;20037;-60
2022/08/09 04:18:14;;;;;;;6.20;5.80;;;;;;;;;;5044884;28;20029;-60
2022/08/09 04:20:40;;;;;;;6.70;6.20;;;;;;;;;;5049281;28;20036;-60
2022/08/09 04:23:07;;;;;;;7.35;6.85;;;;;;;;;;5048589;28;20112;-60
2022/08/09 04:25:32;;;;;;;6.30;5.80;;;;;;;;;;5044066;28;20033;-60
2022/08/09 04:27:58;;;;;;;6.60;6.10;;;;;;;;;;5041832;28;20059;-60
2022/08/09 04:30:23;;;;;;;7.45;6.95;;;;;;;;;;5039209;28;20339;-60
2022/08/09 04:32:49;;;;;;;7.05;6.55;;;;;;;;;;5042474;28;20017;-60
2022/08/09 04:35:14;;;;;;;7.07;6.47;;;;;;;;;;5041834;28;20045;-60
2022/08/09 04:37:40;;;;;;;6.97;6.47;;;;;;;;;;5042789;28;20033;-60
2022/08/09 04:40:07;;;;;;;6.47;6.07;;;;;;;;;;5042773;28;20340;-60
2022/08/09 04:42:32;;;;;;;7.95;7.45;;;;;;;;;;5045132;28;20127;-60
2022/08/09 04:44:59;;;;;;;7.40;6.90;;;;;;;;;;5048755;28;20116;-60
2022/08/09 04:47:26;;;;;;;6.70;6.20;;;;;;;;;;5045769;28;20048;-60
2022/08/09 04:49:51;;;;;;;6.63;6.13;;;;;;;;;;5043273;28;20032;-60
2022/08/09 04:52:17;;;;;;;8.18;7.43;;;;;;;;;;5045590;28;20059;-61
2022/08/09 04:54:43;;;;;;;6.70;6.20;;;;;;;;;;5049229;28;20033;-60
2022/08/09 04:57:09;;;;;;;7.07;6.57;;;;;;;;;;5047364;28;20143;-60
2022/08/09 04:59:35;;;;;;;6.85;6.35;;;;;;;;;;5045012;28;20067;-60
2022/08/09 05:02:00;;;;;;;6.30;5.90;;;;;;;;;;5045195;28;20032;-60
2022/08/09 05:04:26;;;;;;;6.22;5.82;;;;;;;;;;5043819;28;20036;-60
2022/08/09 05:06:51;;;;;;;6.05;5.65;;;;;;;;;;5037904;28;20045;-60
2022/08/09 05:09:16;;;;;;;7.63;7.13;;;;;;;;;;5039594;28;20036;-60
2022/08/09 05:11:42;;;;;;;7.35;6.85;;;;;;;;;;5038847;28;20068;-59
2022/08/09 05:14:07;;;;;;;6.53;6.10;;;;;;;;;;5041314;28;20032;-59
2022/08/09 05:16:34;;;;;;;7.57;7.07;;;;;;;;;;5045398;28;20031;-60
2022/08/09 05:18:59;;;;;;;6.45;6.00;;;;;;;;;;5045719;28;20031;-60
2022/08/09 05:21:26;;;;;;;7.45;6.95;;;;;;;;;;5046662;28;20386;-61
2022/08/09 05:23:52;;;;;;;7.82;7.32;;;;;;;;;;5040320;28;20025;-59
2022/08/09 05:26:17;;;;;;;7.50;7.00;;;;;;;;;;5046510;28;20043;-60
2022/08/09 05:28:43;;;;;;;6.80;6.30;;;;;;;;;;5051365;28;20037;-59
2022/08/09 05:31:08;;;;;;;7.18;6.68;;;;;;;;;;5045853;28;20100;-60
2022/08/09 05:33:33;;;;;;;6.55;6.05;;;;;;;;;;5040059;28;20033;-60
2022/08/09 05:35:59;;;;;;;6.07;5.68;;;;;;;;;;5042488;28;20040;-59
2022/08/09 05:38:25;;;;;;;7.20;6.70;;;;;;;;;;5042699;28;20033;-60
2022/08/09 05:40:50;;;;;;;7.35;6.85;;;;;;;;;;5039203;28;20033;-59
2022/08/09 05:43:16;;;;;;;7.53;7.03;;;;;;;;;;5044651;28;20461;-59
2022/08/09 05:45:41;;;;;;;7.45;6.95;;;;;;;;;;5041920;28;20381;-60
2022/08/09 05:48:06;;;;;;;7.53;6.97;;;;;;;;;;5045592;28;20033;-59
2022/08/09 05:50:32;;;;;;;7.15;6.65;;;;;;;;;;5041794;28;20041;-59
2022/08/09 05:52:57;;;;;;;6.40;6.00;;;;;;;;;;5048388;28;20025;-59
2022/08/09 05:55:23;;;;;;;8.88;7.97;;;;;;;;;;5046594;28;20455;-61
2022/08/09 05:57:49;;;;;;;7.22;6.72;;;;;;;;;;5040349;28;20032;-59
2022/08/09 06:00:14;;;;;;;7.57;7.07;;;;;;;;;;5045592;28;20445;-59
2022/08/09 06:02:40;;;;;;;7.93;7.22;;;;;;;;;;5048856;28;20036;-59
2022/08/09 06:05:07;;;;;;;8.77;8.18;;;;;;;;;;5043470;28;20033;-59
2022/08/09 06:07:34;;;;;;;6.75;6.25;;;;;;;;;;5041693;28;20511;-58
2022/08/09 06:09:59;;;;;;;7.05;6.55;;;;;;;;;;5040139;28;20061;-59
2022/08/09 06:12:24;;;;;;;7.13;6.63;;;;;;;;;;5044236;28;20071;-59
2022/08/09 06:14:50;;;;;;;7.80;7.10;;;;;;;;;;5039775;28;20080;-59
2022/08/09 06:17:15;;;;;;;6.97;6.47;;;;;;;;;;5045659;28;20033;-59
2022/08/09 06:19:40;;;;;;;7.45;6.95;;;;;;;;;;5042981;28;20064;-59
2022/08/09 06:22:06;;;;;;;7.32;6.82;;;;;;;;;;5045896;28;20366;-59
2022/08/09 06:24:31;;;;;;;7.38;6.68;;;;;;;;;;5039527;28;20029;-59
2022/08/09 06:26:57;;;;;;;7.30;6.80;;;;;;;;;;5045010;28;20043;-59
2022/08/09 06:29:22;;;;;;;7.82;7.30;;;;;;;;;;5040525;28;20628;-59
2022/08/09 06:31:48;;;;;;;9.05;8.45;;;;;;;;;;5042849;28;20116;-60
2022/08/09 06:34:13;;;;;;;7.30;6.80;;;;;;;;;;5044677;28;20637;-59
2022/08/09 06:36:38;;;;;;;7.47;6.97;;;;;;;;;;5048621;28;20509;-60
2022/08/09 06:39:04;;;;;;;8.25;7.75;;;;;;;;;;5045303;28;20089;-60
2022/08/09 06:41:29;;;;;;;9.25;8.65;;;;;;;;;;5039401;28;20140;-60
2022/08/09 06:43:55;;;;;;;13.48;12.68;;;;;;;;;;5039976;28;20027;-60
2022/08/09 06:46:20;;;;;;;7.88;7.38;;;;;;;;;;5026386;28;20041;-60
2022/08/09 06:48:45;;;;;;;11.50;10.80;;;;;;;;;;5040914;28;20045;-60
2022/08/09 06:51:11;;;;;;;14.88;13.98;;;;;;;;;;5041144;28;20061;-60
2022/08/09 06:53:37;;;;;;;16.83;15.82;;;;;;;;;;5043927;28;20036;-60
2022/08/09 06:56:03;;;;;;;20.48;19.38;;;;;;;;;;5045960;28;20040;-61
2022/08/09 06:58:29;;;;;;;17.75;16.75;;;;;;;;;;5042198;28;20041;-61
2022/08/09 07:00:54;;;;;;;34.75;32.95;;;;;;;;;;5044309;28;20106;-60
2022/08/09 07:03:21;;;;;;;39.13;36.92;;;;;;;;;;5040448;28;20059;-60
2022/08/09 07:05:47;;;;;;;53.80;51.08;;;;;;;;;;5041572;28;20433;-60
2022/08/09 07:08:12;;;;;;;46.80;44.45;;;;;;;;;;5037237;28;20029;-60
2022/08/09 07:10:37;;;;;;;52.80;50.10;;;;;;;;;;5044287;28;20037;-60
2022/08/09 07:13:03;;;;;;;49.15;46.65;;;;;;;;;;5041396;28;20531;-59
2022/08/09 07:15:28;;;;;;;52.05;49.42;;;;;;;;;;5045707;28;20550;-60
2022/08/09 07:17:53;;;;;;;50.95;48.35;;;;;;;;;;5043212;28;20033;-60
2022/08/09 07:20:19;;;;;;;58.45;55.53;;;;;;;;;;5041181;28;20029;-62
2022/08/09 07:22:45;;;;;;;49.80;47.25;;;;;;;;;;5044792;28;20665;-60
2022/08/09 07:25:10;;;;;;;51.22;48.63;;;;;;;;;;5038013;28;20033;-60
2022/08/09 07:27:40;;;;;;;49.33;46.83;;;;;;;;;;5043845;28;20033;-61
2022/08/09 07:30:06;;;;;;;47.40;45.00;;;;;;;;;;5042939;28;20025;-60
2022/08/09 07:32:32;;;;;;;56.90;54.05;;;;;;;;;;5043781;28;20052;-60
2022/08/09 07:34:57;;;;;;;65.07;61.78;;;;;;;;;;5044367;28;20067;-61
2022/08/09 07:37:22;;;;;;;54.65;51.90;;;;;;;;;;5047507;28;20144;-60
2022/08/09 07:39:48;;;;;;;56.30;53.50;;;;;;;;;;5047961;28;20029;-61
2022/08/09 07:42:13;;;;;;;49.50;47.00;;;;;;;;;;5046807;28;20028;-61
2022/08/09 07:44:39;;;;;;;73.20;69.50;;;;;;;;;;5045713;28;20517;-60
2022/08/09 07:47:04;;;;;;;53.88;51.08;;;;;;;;;;5044842;28;20033;-60
2022/08/09 07:49:30;;;;;;;51.85;49.25;;;;;;;;;;5044630;28;20091;-61
2022/08/09 07:51:55;;;;;;;56.22;53.42;;;;;;;;;;5044910;28;20073;-60
2022/08/09 07:54:20;;;;;;;44.00;41.72;;;;;;;;;;5049942;28;20452;-60
2022/08/09 07:56:46;;;;;;;60.72;57.72;;;;;;;;;;5047927;28;20045;-60
2022/08/09 07:59:11;;;;;;;44.90;42.63;;;;;;;;;;5046674;28;20522;-60
2022/08/09 08:01:37;;;;;;;51.10;48.53;;;;;;;;;;5046405;28;20403;-60
2022/08/09 08:04:02;;;;;;;52.47;49.85;;;;;;;;;;5049162;28;20145;-60
2022/08/09 08:06:29;;;;;;;47.53;45.13;;;;;;;;;;5047017;28;20068;-60
2022/08/09 08:08:54;;;;;;;46.85;44.47;;;;;;;;;;5044653;28;20052;-59
2022/08/09 08:11:20;;;;;;;46.05;43.72;;;;;;;;;;5046727;28;20072;-61
2022/08/09 08:13:46;;;;;;;50.22;47.67;;;;;;;;;;5046250;28;20029;-59
2022/08/09 08:16:11;;;;;;;41.17;39.08;;;;;;;;;;5038300;28;20037;-59
2022/08/09 08:18:36;;;;;;;64.80;61.53;;;;;;;;;;5043266;28;20044;-59
2022/08/09 08:21:02;;;;;;;36.38;34.45;;;;;;;;;;5041923;28;20035;-59
2022/08/09 08:23:27;;;;;;;46.85;44.45;;;;;;;;;;5040584;28;20106;-59
2022/08/09 08:25:53;;;;;;;30.30;28.70;;;;;;;;;;5039409;28;20568;-60
2022/08/09 08:28:20;;;;;;;60.80;57.75;;;;;;;;;;5040176;28;20043;-59
2022/08/09 08:30:45;;;;;;;32.40;30.70;;;;;;;;;;5041524;28;20060;-59
2022/08/09 08:33:11;;;;;;;31.67;30.00;;;;;;;;;;5042041;28;20024;-58
2022/08/09 08:35:36;;;;;;;51.47;48.85;;;;;;;;;;5042030;28;20037;-60
2022/08/09 08:38:02;;;;;;;43.38;41.17;;;;;;;;;;5043491;28;20110;-60
2022/08/09 08:40:27;;;;;;;35.08;33.28;;;;;;;;;;5041418;28;20060;-59
2022/08/09 08:42:53;;;;;;;29.35;27.80;;;;;;;;;;5040513;28;20056;-60
2022/08/09 08:45:28;;;;;;;33.83;32.08;;;;;;;;;;5040632;28;20040;-58
2022/08/09 08:47:53;;;;;;;43.63;41.40;;;;;;;;;;5042318;28;20086;-60
2022/08/09 08:50:19;;;;;;;34.50;32.72;;;;;;;;;;5038828;28;20017;-59
2022/08/09 08:52:47;;;;;;;41.63;39.53;;;;;;;;;;5037844;28;20481;-59
2022/08/09 08:55:14;;;;;;;44.50;42.22;;;;;;;;;;5043062;28;20033;-59
2022/08/09 08:57:40;;;;;;;47.42;45.00;;;;;;;;;;5044325;28;20059;-60
2022/08/09 09:00:08;;;;;;;44.63;42.25;;;;;;;;;;5041205;28;20037;-59
2022/08/09 09:02:35;;;;;;;48.72;46.28;;;;;;;;;;5040490;28;20044;-59
2022/08/09 09:05:00;;;;;;;55.75;52.97;;;;;;;;;;5042172;28;20021;-59
2022/08/09 09:07:29;;;;;;;59.20;56.25;;;;;;;;;;5040669;28;20040;-60
2022/08/09 09:09:55;;;;;;;63.13;59.97;;;;;;;;;;5039788;28;20037;-59
2022/08/09 09:12:22;;;;;;;69.95;66.47;;;;;;;;;;5045543;28;20037;-60
2022/08/09 09:14:49;;;;;;;67.45;64.10;;;;;;;;;;5042930;28;20037;-59
2022/08/09 09:17:15;;;;;;;63.10;59.95;;;;;;;;;;5041361;28;20017;-59
2022/08/09 09:19:42;;;;;;;65.47;62.20;;;;;;;;;;5041356;28;20054;-59
2022/08/09 09:22:15;;;;;;;61.95;58.85;;;;;;;;;;5039718;28;20035;-58
2022/08/09 09:24:43;;;;;;;65.50;62.20;;;;;;;;;;5039573;28;20032;-58
2022/08/09 09:27:10;;;;;;;79.10;75.20;;;;;;;;;;5037676;28;20044;-59
2022/08/09 09:29:41;;;;;;;66.22;62.90;;;;;;;;;;5041415;28;20034;-59
2022/08/09 09:32:07;;;;;;;73.78;70.07;;;;;;;;;;5044261;28;20044;-59
2022/08/09 09:34:34;;;;;;;65.43;62.17;;;;;;;;;;5038173;28;20040;-59
2022/08/09 09:37:00;;;;;;;76.68;72.88;;;;;;;;;;5041965;28;20468;-60
2022/08/09 09:39:28;;;;;;;61.50;58.42;;;;;;;;;;5044354;28;20128;-60
2022/08/09 09:41:54;;;;;;;65.25;61.88;;;;;;;;;;5041631;28;20144;-60
2022/08/09 09:44:27;;;;;;;82.95;78.85;;;;;;;;;;5041018;28;20037;-59
2022/08/09 09:47:07;;;;;;;95.63;90.93;;;;;;;;;;5045086;28;20029;-59
2022/08/09 09:49:33;;;;;;;58.42;55.50;;;;;;;;;;5041125;28;20036;-59
2022/08/09 09:52:01;;;;;;;83.57;79.43;;;;;;;;;;5040473;28;20025;-59
2022/08/09 09:54:35;;;;;;;91.93;87.43;;;;;;;;;;5039727;28;20029;-59
2022/08/09 09:57:19;;;;;;;101.00;96.00;;;;;;;;;;5043939;28;20033;-58
2022/08/09 09:59:46;;;;;;;78.43;74.57;;;;;;;;;;5039707;28;20059;-59
2022/08/09 10:02:13;;;;;;;94.57;89.95;;;;;;;;;;5039735;28;20040;-59
2022/08/09 10:04:39;;;;;;;96.35;91.65;;;;;;;;;;5042179;28;20033;-59
2022/08/09 10:07:18;;;;;;;95.05;90.38;;;;;;;;;;5040007;28;20406;-59
2022/08/09 10:09:47;;;;;;;87.28;83.00;;;;;;;;;;5041424;28;20037;-59
2022/08/09 10:12:31;;;;;;;109.30;103.93;;;;;;;;;;5042942;28;20115;-59
2022/08/09 10:15:15;;;;;;;106.35;101.13;;;;;;;;;;5039052;28;20040;-59
2022/08/09 10:17:44;;;;;;;98.05;93.25;;;;;;;;;;5038180;28;20037;-59
2022/08/09 10:20:16;;;;;;;104.85;99.63;;;;;;;;;;5040212;28;20091;-60
2022/08/09 10:22:41;;;;;;;156.52;148.82;;;;;;;;;;5040470;28;20078;-60
2022/08/09 10:25:08;;;;;;;117.13;111.35;;;;;;;;;;5037379;28;20041;-61
2022/08/09 10:27:34;;;;;;;119.82;113.93;;;;;;;;;;5040808;28;20102;-60
2022/08/09 10:30:04;;;;;;;119.18;113.32;;;;;;;;;;5041172;28;20553;-59
2022/08/09 10:32:30;;;;;;;154.85;147.18;;;;;;;;;;5040329;28;20160;-59
2022/08/09 10:34:56;;;;;;;188.18;179.00;;;;;;;;;;5036726;28;20489;-59
2022/08/09 10:37:23;;;;;;;186.32;177.20;;;;;;;;;;5039830;28;20025;-60
2022/08/09 10:39:48;;;;;;;215.40;204.80;;;;;;;;;;5043566;28;20033;-59
2022/08/09 10:42:14;;;;;;;185.30;176.23;;;;;;;;;;5038741;28;20555;-59
2022/08/09 10:44:44;;;;;;;196.63;187.02;;;;;;;;;;5040106;28;20406;-59
2022/08/09 10:47:21;;;;;;;205.15;195.15;;;;;;;;;;5039084;28;20371;-58
2022/08/09 10:50:02;;;;;;;143.68;136.15;;;;;;;;;;5036617;28;20386;-58
2022/08/09 10:52:52;;;;;;;247.10;235.10;;;;;;;;;;5039145;28;20135;-58
2022/08/09 10:55:26;;;;;;;183.82;174.68;;;;;;;;;;5042561;28;20032;-58
2022/08/09 10:57:52;;;;;;;188.27;178.98;;;;;;;;;;5045082;28;20039;-58
2022/08/09 11:00:39;;;;;;;272.75;259.45;;;;;;;;;;5042179;28;20029;-58
2022/08/09 11:03:25;;;;;;;291.10;276.83;;;;;;;;;;5039647;28;20461;-59
2022/08/09 11:06:22;;;;;;;285.85;271.90;;;;;;;;;;5039080;28;20056;-58
2022/08/09 11:08:48;;;;;;;264.35;251.48;;;;;;;;;;5039504;28;20052;-58
2022/08/09 11:11:16;;;;;;;247.00;234.98;;;;;;;;;;5043697;28;20029;-58
2022/08/09 11:13:41;;;;;;;271.13;257.70;;;;;;;;;;5046720;28;20467;-58
2022/08/09 11:16:31;;;;;;;279.63;265.95;;;;;;;;;;5050610;28;20067;-58
2022/08/09 11:18:57;;;;;;;285.80;271.80;;;;;;;;;;5046980;28;20072;-58
2022/08/09 11:21:53;;;;;;;294.20;279.75;;;;;;;;;;5046614;28;20200;-58
2022/08/09 11:24:20;;;;;;;300.15;285.45;;;;;;;;;;5045503;28;20037;-58
2022/08/09 11:26:49;;;;;;;313.88;298.45;;;;;;;;;;5043679;28;20417;-58
2022/08/09 11:29:52;;;;;;;293.52;279.13;;;;;;;;;;5044203;28;20041;-59
2022/08/09 11:32:44;;;;;;;307.98;292.83;;;;;;;;;;5044563;28;20090;-58
2022/08/09 11:35:35;;;;;;;351.63;334.02;;;;;;;;;;5043330;28;20628;-59
2022/08/09 11:38:16;;;;;;;357.65;339.67;;;;;;;;;;5043063;28;20479;-60
2022/08/09 11:40:42;;;;;;;255.35;242.90;;;;;;;;;;5057075;28;20033;-59
2022/08/09 11:43:07;;;;;;;296.13;281.65;;;;;;;;;;5045687;28;20036;-60
2022/08/09 11:45:39;;;;;;;367.92;349.45;;;;;;;;;;5045786;28;20040;-60
2022/08/09 11:48:10;;;;;;;267.27;253.68;;;;;;;;;;5044768;28;20033;-60
2022/08/09 11:51:11;;;;;;;319.42;303.63;;;;;;;;;;5045426;28;20037;-59
2022/08/09 11:53:38;;;;;;;256.50;244.07;;;;;;;;;;5005678;28;20166;-59
2022/08/09 11:56:12;;;;;;;309.40;294.08;;;;;;;;;;5038051;28;20041;-58
2022/08/09 11:58:58;;;;;;;199.60;189.82;;;;;;;;;;5045795;28;20037;-59
2022/08/09 12:01:32;;;;;;;237.57;226.00;;;;;;;;;;5044557;28;20063;-60
2022/08/09 12:04:00;;;;;;;173.10;164.63;;;;;;;;;;5040113;28;20037;-59
2022/08/09 12:06:26;;;;;;;160.13;152.23;;;;;;;;;;5043248;28;20037;-59
2022/08/09 12:08:53;;;;;;;151.30;143.82;;;;;;;;;;5029354;28;20026;-59
2022/08/09 12:11:24;;;;;;;212.20;201.85;;;;;;;;;;5046933;28;20100;-59
2022/08/09 12:13:55;;;;;;;161.85;153.90;;;;;;;;;;5046214;28;20479;-60
2022/08/09 12:16:23;;;;;;;135.48;128.82;;;;;;;;;;5049258;28;20114;-59
2022/08/09 12:18:51;;;;;;;200.13;190.40;;;;;;;;;;5043578;28;20033;-60
2022/08/09 12:21:26;;;;;;;142.85;135.85;;;;;;;;;;5044427;28;20086;-60
2022/08/09 12:23:52;;;;;;;98.95;94.10;;;;;;;;;;5044172;28;20596;-60
2022/08/09 12:26:19;;;;;;;101.10;96.13;;;;;;;;;;5046702;28;20025;-59
2022/08/09 12:28:54;;;;;;;104.35;99.22;;;;;;;;;;5042877;28;20021;-59
2022/08/09 12:31:25;;;;;;;142.30;135.32;;;;;;;;;;5042385;28;20060;-60
2022/08/09 12:33:52;;;;;;;201.90;192.05;;;;;;;;;;5042401;28;20040;-60
2022/08/09 12:36:18;;;;;;;223.02;212.18;;;;;;;;;;5044732;28;20025;-60
2022/08/09 12:38:44;;;;;;;169.13;160.82;;;;;;;;;;5042985;28;20071;-59
2022/08/09 12:41:10;;;;;;;172.80;164.38;;;;;;;;;;5043820;28;20073;-59
2022/08/09 12:43:36;;;;;;;141.52;134.55;;;;;;;;;;5042371;28;20032;-59
2022/08/09 12:46:01;;;;;;;121.40;115.43;;;;;;;;;;5038399;28;20040;-59
2022/08/09 12:48:28;;;;;;;147.10;139.85;;;;;;;;;;5043823;28;20025;-59
2022/08/09 12:50:54;;;;;;;112.50;106.97;;;;;;;;;;5048419;28;20043;-59
2022/08/09 12:53:29;;;;;;;125.82;119.65;;;;;;;;;;5041305;28;20055;-60
2022/08/09 12:56:13;;;;;;;117.97;112.18;;;;;;;;;;5042513;28;20151;-60
2022/08/09 12:58:40;;;;;;;160.15;152.25;;;;;;;;;;5042232;28;20061;-60
2022/08/09 13:01:23;;;;;;;277.23;263.75;;;;;;;;;;5041600;28;20022;-60
2022/08/09 13:04:16;;;;;;;235.73;224.15;;;;;;;;;;5043354;28;20029;-60
2022/08/09 13:06:44;;;;;;;141.07;134.18;;;;;;;;;;5042489;28;20132;-59
2022/08/09 13:09:17;;;;;;;187.70;178.57;;;;;;;;;;5041344;28;20025;-58
2022/08/09 13:11:47;;;;;;;190.80;181.48;;;;;;;;;;5040440;28;20060;-59
2022/08/09 13:14:14;;;;;;;202.32;192.48;;;;;;;;;;5047513;28;20040;-60
2022/08/09 13:16:48;;;;;;;180.98;172.07;;;;;;;;;;5044361;28;20040;-60
2022/08/09 13:19:37;;;;;;;168.18;160.00;;;;;;;;;;5037222;28;20026;-60
2022/08/09 13:22:15;;;;;;;171.90;163.45;;;;;;;;;;5043886;28;20447;-60
2022/08/09 13:24:54;;;;;;;223.02;212.20;;;;;;;;;;5042854;28;20039;-60
2022/08/09 13:27:31;;;;;;;235.23;223.80;;;;;;;;;;5041423;28;20025;-60
2022/08/09 13:30:07;;;;;;;236.52;225.07;;;;;;;;;;5041616;28;20064;-60
2022/08/09 13:32:48;;;;;;;140.25;133.35;;;;;;;;;;5044247;28;20037;-60
2022/08/09 13:35:17;;;;;;;239.82;228.20;;;;;;;;;;5043093;28;20059;-60
2022/08/09 13:37:43;;;;;;;335.42;318.92;;;;;;;;;;5041544;28;20033;-60
2022/08/09 13:40:09;;;;;;;184.32;175.25;;;;;;;;;;5037007;28;20414;-60
2022/08/09 13:42:35;;;;;;;254.88;242.52;;;;;;;;;;5036721;28;20045;-60
2022/08/09 13:45:01;;;;;;;294.55;280.20;;;;;;;;;;5040999;28;20085;-60
2022/08/09 13:47:27;;;;;;;302.10;287.20;;;;;;;;;;5037066;28;20467;-60
2022/08/09 13:49:52;;;;;;;309.60;294.45;;;;;;;;;;5040009;28;20063;-60
2022/08/09 13:52:17;;;;;;;245.90;233.98;;;;;;;;;;5043366;28;20592;-60
2022/08/09 13:54:43;;;;;;;263.42;250.68;;;;;;;;;;5034647;28;20037;-60
2022/08/09 13:57:09;;;;;;;232.68;221.38;;;;;;;;;;5039058;28;20048;-59
2022/08/09 13:59:35;;;;;;;161.35;153.38;;;;;;;;;;5039876;28;20282;-59
2022/08/09 14:02:01;;;;;;;146.00;138.82;;;;;;;;;;5041717;28;20032;-58
2022/08/09 14:04:27;;;;;;;119.07;113.18;;;;;;;;;;5041258;28;20112;-60
2022/08/09 14:06:57;;;;;;;142.82;135.80;;;;;;;;;;5036577;28;20412;-60
2022/08/09 14:09:23;;;;;;;199.93;190.15;;;;;;;;;;5042874;28;20029;-60
2022/08/09 14:11:50;;;;;;;134.85;128.20;;;;;;;;;;5038638;28;20036;-60
2022/08/09 14:14:15;;;;;;;151.98;144.48;;;;;;;;;;5036399;28;20112;-59
2022/08/09 14:16:41;;;;;;;250.27;238.13;;;;;;;;;;5037110;28;20741;-60
2022/08/09 14:19:06;;;;;;;128.32;122.03;;;;;;;;;;5038269;28;20029;-60
2022/08/09 14:21:32;;;;;;;199.63;189.93;;;;;;;;;;5041584;28;20048;-60
2022/08/09 14:23:57;;;;;;;144.20;137.13;;;;;;;;;;5037852;28;20044;-60